Bryce, UT (84764)

1:13 PM MDT on July 30, 2016 (GMT -0600)
Bryce Canyon | | Change Station
Active Advisory: Fire Weather Warning Active Notice: Record Report

Elev 7585 ft 37.71 °N, 112.15 °W | Updated 20 minutes ago

Thunderstorm
Thunderstorm
81 °F
Feels Like 81 °F
N
5
Wind Variable Wind from Variable

Today
High -- | Low -- °F
--% Chance of Precip.
Yesterday
High -- | Low -- °F
Precip. -- in
Pressure 29.86 in
Visibility 10.0 miles
Clouds Clear
Dew Point 41 °F
Humidity 24%
Rainfall 0.00 in
Snow Depth Not available.
6:31 AM 8:38 PM
Waning Crescent, 11% visible
METAR KBCE 301853Z AUTO VRB04KT 10SM TS CLR 27/05 A3028 RMK AO2 LTG DSNT E TSB52 SLP110 T02720050
Pressure 29.86 in
Visibility 10.0 miles
Clouds Clear
Dew Point 41 °F
Humidity 24%
Rainfall 0.00 in
Snow Depth Not available.
6:31 AM 8:38 PM
Waning Crescent, 11% visible
METAR KBCE 301853Z AUTO VRB04KT 10SM TS CLR 27/05 A3028 RMK AO2 LTG DSNT E TSB52 SLP110 T02720050

10-Day Weather Forecast

Almanac

Astronomy

Jul. 30, 2016 Rise Set
Actual Time
Civil Twilight
Nautical Twilight
Astronomical Twilight
Moon
Length of Visible Light
Length of Day
Tomorrow will be .
, % of the Moon is Illuminated

Today's Extremes

State Highs State Lows

Community

WunderPhotos

Upload Photos

1,928,622 photos uploaded!

WunderBlog® & News

Nearby

Air Quality

  Air Quality AQ Index Pollutant
Not available.

Snow Depth

Station Depth Elevation

Earthquake Activity

City Distance Mag. Time & Date
Minimum magnitude displayed is 2.5.

Coastal Water Temperatures

Place Temperature

Stations

Nearby Weather Stations

Station Location Temp. Windchill Dew Point Humidity Wind Precip. Elev Updated Type
                   

Watches & Warnings

Fire Weather Warning
Issued: 3:08 AM MDT Jul. 30, 2016 – National Weather Service

... Red flag warning remains in effect until 10 PM MDT this
evening for dry thunderstorms and gusty outflow winds for fire
weather zones 492... 493... 495... 497 and 498...

* affected area... fire weather zone 492 central Utah west
desert... fire weather zone 493 central Utah mountains... fire
weather zone 495 color Country West desert... fire weather zone
497 Mojave Desert and fire weather zone 498 Grand Staircase.

* Thunderstorms... isolated mainly dry thunderstorms are expected
to develop late this morning... then become scattered during the
afternoon and evening.

* Outflow winds... gusty and erratic winds in excess of 40 mph
will be possible with any storms that develop.

* Impacts... the threat of lightning and gusty winds in addition
to very dry conditions will bring the potential of multiple
new fire starts.

Precautionary/preparedness actions...

A red flag warning means that critical fire weather conditions
are either occurring now... or will shortly. A combination of
strong winds... low relative humidity... and warm temperatures can
contribute to extreme fire behavior.